Skip Navigation LinksHome page > Weather > Current weather Skip Navigation Links

Current Weather

John F Kennedy Intl, New York

For information only: do not use for flight planning or navigation.
Latest weather
Observation time Tuesday, September 28, 2021 4:51 AM EDT
Local time Tuesday, September 28, 2021 5:34 AM EDT
Flight conditions Visual Meteorological Conditions
Winds
Wind direction West-Southwest (250°)
Wind speed 10 mph
Visibility 10 mi.
Sky condition
Ceiling unlimited
Cloud layer few clouds 17,000 ft.
Cloud layer scattered clouds 25,000 ft.
Temperature 66°F
Dewpoint 59°F
Altimeter 29.84 in.Hg
Pressure change last 3 hours0.04 in.Hg
Pressure falling more slowly
Derived measurements
Relative humidity 78%
Density altitude 799 ft.
Sea-level pressure 29.84 in.Hg
Remarks
Automated weather observing station with precipitation discriminator.
METAR KJFK 280851Z 25009KT 10SM FEW170 SCT250 19/15 A2984 RMK AO2 SLP105 T01890150 56012

Settings

Location code

InnerDrive.Weather 4.0.6770.0 Release CLR 4.0.30319.42000
Copyright ©2018 Inner Drive Technology. All rights reserved. Portions Copyright ©1986-2018 David Braverman.

Find weather

Site navigation


Skip Navigation Links

Place info

Page info

PayPal - The safer, easier way to pay online!

Return home.

Copyright ©2021 Inner Drive Technology. Purveyors of fine, hand-crafted computer software. Page printed 2021-09-28T09:34:02 UTC.